createdAt,value
2023-03-16T00:00:13.071Z,95.37
2023-03-16T00:01:11.077Z,95.08
2023-03-16T00:02:11.120Z,94.78
2023-03-16T00:03:11.173Z,94.81
2023-03-16T00:04:11.077Z,94.68
2023-03-16T00:05:11.071Z,95.08
2023-03-16T00:06:11.069Z,95.11
2023-03-16T00:07:11.071Z,95.10
2023-03-16T00:08:11.073Z,95.11
2023-03-16T00:09:11.073Z,94.99
2023-03-16T00:10:13.070Z,94.99
2023-03-16T00:11:11.075Z,94.93
2023-03-16T00:12:18.082Z,95.04
2023-03-16T00:13:11.073Z,95.15
2023-03-16T00:14:11.068Z,94.99
2023-03-16T00:15:11.071Z,94.79
2023-03-16T00:16:11.134Z,94.84
2023-03-16T00:17:14.072Z,94.80
2023-03-16T00:18:11.077Z,95.00
2023-03-16T00:19:11.073Z,94.91
2023-03-16T00:20:11.082Z,94.96
2023-03-16T00:21:11.075Z,95.15
2023-03-16T00:22:11.074Z,95.47
2023-03-16T00:23:11.070Z,95.82
2023-03-16T00:24:11.082Z,95.67
2023-03-16T00:25:11.087Z,95.54
2023-03-16T00:26:11.070Z,95.50
2023-03-16T00:27:13.095Z,95.44
2023-03-16T00:28:11.081Z,95.41
2023-03-16T00:29:11.066Z,95.40
2023-03-16T00:30:11.090Z,95.33
2023-03-16T00:31:11.076Z,95.28
2023-03-16T00:32:11.066Z,95.21
2023-03-16T00:33:11.166Z,95.17
2023-03-16T00:34:13.085Z,95.09
2023-03-16T00:35:11.074Z,95.15
2023-03-16T00:36:11.260Z,95.08
2023-03-16T00:37:11.107Z,95.30
2023-03-16T00:38:11.072Z,95.62
2023-03-16T00:39:11.072Z,95.64
2023-03-16T00:40:11.076Z,95.59
2023-03-16T00:41:11.069Z,95.35
2023-03-16T00:42:11.075Z,95.62
2023-03-16T00:43:11.073Z,95.68
2023-03-16T00:44:11.064Z,95.80
2023-03-16T00:45:11.065Z,95.94
2023-03-16T00:46:11.113Z,95.73
2023-03-16T00:47:13.064Z,95.64
2023-03-16T00:48:11.063Z,95.76
2023-03-16T00:49:11.069Z,95.76
2023-03-16T00:50:11.070Z,96.13
2023-03-16T00:51:13.077Z,96.16
2023-03-16T00:52:11.068Z,96.07
2023-03-16T00:53:11.076Z,95.81
2023-03-16T00:54:11.073Z,95.68
2023-03-16T00:55:11.070Z,95.72
2023-03-16T00:56:11.067Z,95.80
2023-03-16T00:57:11.066Z,95.91
2023-03-16T00:58:11.075Z,95.82
2023-03-16T00:59:11.064Z,95.74
2023-03-16T01:00:16.067Z,95.50
2023-03-16T01:01:17.130Z,95.29
2023-03-16T01:02:11.061Z,95.54
2023-03-16T01:03:11.119Z,95.76
2023-03-16T01:04:11.056Z,95.70
2023-03-16T01:05:11.099Z,95.54
2023-03-16T01:06:11.078Z,95.62
2023-03-16T01:07:11.063Z,95.72
2023-03-16T01:08:11.066Z,95.61
2023-03-16T01:09:11.071Z,95.87
2023-03-16T01:10:11.074Z,95.95
2023-03-16T01:11:14.063Z,95.85
2023-03-16T01:12:16.063Z,95.60
2023-03-16T01:13:11.063Z,95.79
2023-03-16T01:14:11.076Z,95.89
2023-03-16T01:15:11.058Z,95.88
2023-03-16T01:16:11.066Z,95.70
2023-03-16T01:17:12.064Z,95.75
2023-03-16T01:18:11.063Z,95.74
2023-03-16T01:19:11.064Z,95.81
2023-03-16T01:20:12.159Z,95.84
2023-03-16T01:21:11.059Z,95.90
2023-03-16T01:22:11.063Z,96.18
2023-03-16T01:23:11.070Z,96.47
2023-03-16T01:24:11.059Z,96.40
2023-03-16T01:25:12.067Z,96.43
2023-03-16T01:26:11.073Z,96.20
2023-03-16T01:27:11.072Z,96.21
2023-03-16T01:28:11.067Z,96.06
2023-03-16T01:29:11.065Z,95.92
2023-03-16T01:30:11.062Z,95.85
2023-03-16T01:31:11.135Z,95.72
2023-03-16T01:32:11.065Z,95.86
2023-03-16T01:33:11.062Z,95.90
2023-03-16T01:34:11.063Z,95.78
2023-03-16T01:35:11.070Z,95.93
2023-03-16T01:36:14.068Z,95.82
2023-03-16T01:37:11.065Z,95.93
2023-03-16T01:38:11.073Z,95.78
2023-03-16T01:39:11.066Z,96.10
2023-03-16T01:40:11.065Z,96.33
2023-03-16T01:41:11.074Z,96.45
2023-03-16T01:42:11.071Z,96.34
2023-03-16T01:43:13.065Z,96.25
2023-03-16T01:44:18.064Z,96.30
2023-03-16T01:45:19.063Z,96.28
2023-03-16T01:46:15.152Z,96.26
2023-03-16T01:47:11.065Z,96.21
2023-03-16T01:48:11.066Z,96.01
2023-03-16T01:49:14.062Z,96.21
2023-03-16T01:50:11.065Z,96.31
2023-03-16T01:51:19.074Z,96.63
2023-03-16T01:52:14.062Z,96.66
2023-03-16T01:53:11.068Z,96.66
2023-03-16T01:54:19.073Z,96.72
2023-03-16T01:55:11.068Z,96.39
2023-03-16T01:56:13.061Z,96.49
2023-03-16T01:57:19.081Z,96.91
2023-03-16T01:58:11.069Z,96.91
2023-03-16T01:59:15.069Z,96.85
2023-03-16T02:00:18.068Z,96.60
2023-03-16T02:01:11.153Z,96.55
2023-03-16T02:02:11.073Z,96.39
2023-03-16T02:03:15.082Z,96.57
2023-03-16T02:04:21.169Z,96.86
2023-03-16T02:05:13.088Z,97.01
2023-03-16T02:06:16.072Z,97.07
2023-03-16T02:07:11.073Z,96.92
2023-03-16T02:08:11.076Z,96.88
2023-03-16T02:09:11.067Z,97.05
2023-03-16T02:10:11.067Z,97.14
2023-03-16T02:11:11.079Z,97.05
2023-03-16T02:12:11.067Z,97.34
2023-03-16T02:13:11.075Z,97.22
2023-03-16T02:14:12.112Z,96.99
2023-03-16T02:15:11.067Z,97.16
2023-03-16T02:16:11.144Z,97.06
2023-03-16T02:17:11.071Z,97.12
2023-03-16T02:18:11.094Z,97.02
2023-03-16T02:19:16.072Z,96.97
2023-03-16T02:20:23.122Z,96.83
2023-03-16T02:21:19.070Z,96.91
2023-03-16T02:22:11.078Z,97.35
2023-03-16T02:23:11.066Z,97.60
2023-03-16T02:24:11.087Z,97.59
2023-03-16T02:25:11.073Z,97.57
2023-03-16T02:26:17.070Z,97.61
2023-03-16T02:27:12.071Z,97.31
2023-03-16T02:28:19.072Z,97.20
2023-03-16T02:29:19.070Z,97.24
2023-03-16T02:30:15.070Z,97.26
2023-03-16T02:31:11.121Z,97.28
2023-03-16T02:32:11.072Z,97.38
2023-03-16T02:33:11.093Z,97.38
2023-03-16T02:34:11.072Z,97.34
2023-03-16T02:35:11.086Z,96.97
2023-03-16T02:36:11.075Z,96.87
2023-03-16T02:37:11.068Z,97.05
2023-03-16T02:38:11.079Z,97.13
2023-03-16T02:39:11.073Z,97.05
2023-03-16T02:40:22.072Z,97.20
2023-03-16T02:41:14.096Z,97.21
2023-03-16T02:42:14.073Z,97.11
2023-03-16T02:43:19.080Z,97.05
2023-03-16T02:44:18.077Z,96.96
2023-03-16T02:45:11.072Z,96.95
2023-03-16T02:46:11.178Z,97.24
2023-03-16T02:47:21.070Z,97.39
2023-03-16T02:48:14.072Z,97.46
2023-03-16T02:49:18.078Z,97.27
2023-03-16T02:50:11.078Z,97.30
2023-03-16T02:51:11.075Z,97.00
2023-03-16T02:52:11.086Z,96.85
2023-03-16T02:53:11.076Z,96.72
2023-03-16T02:54:11.070Z,96.66
2023-03-16T02:55:11.094Z,96.87
2023-03-16T02:56:11.075Z,97.08
2023-03-16T02:57:11.073Z,97.10
2023-03-16T02:58:11.072Z,97.08
2023-03-16T02:59:11.082Z,97.14
2023-03-16T03:00:17.121Z,97.20
2023-03-16T03:01:11.079Z,97.08
2023-03-16T03:02:11.359Z,97.00
2023-03-16T03:03:11.104Z,96.99
2023-03-16T03:04:11.072Z,96.92
2023-03-16T03:05:11.072Z,96.79
2023-03-16T03:06:11.076Z,96.82
2023-03-16T03:07:11.077Z,96.83
2023-03-16T03:08:11.082Z,96.79
2023-03-16T03:09:11.084Z,96.85
2023-03-16T03:10:11.080Z,97.07
2023-03-16T03:11:11.087Z,96.90
2023-03-16T03:12:11.083Z,96.86
2023-03-16T03:13:11.074Z,96.98
2023-03-16T03:14:11.076Z,96.73
2023-03-16T03:15:11.083Z,96.69
2023-03-16T03:16:11.098Z,96.55
2023-03-16T03:17:11.073Z,96.59
2023-03-16T03:18:11.079Z,96.65
2023-03-16T03:19:11.071Z,96.49
2023-03-16T03:20:17.074Z,96.51
2023-03-16T03:21:11.075Z,96.55
2023-03-16T03:22:13.081Z,96.53
2023-03-16T03:23:11.078Z,96.76
2023-03-16T03:24:11.080Z,96.61
2023-03-16T03:25:11.076Z,96.41
2023-03-16T03:26:11.079Z,96.41
2023-03-16T03:27:11.080Z,96.28
2023-03-16T03:28:11.084Z,96.20
2023-03-16T03:29:11.074Z,96.17
2023-03-16T03:30:13.072Z,96.22
2023-03-16T03:31:17.092Z,96.28
2023-03-16T03:32:11.076Z,96.46
2023-03-16T03:33:11.072Z,96.28
2023-03-16T03:34:11.093Z,96.21
2023-03-16T03:35:11.084Z,96.20
2023-03-16T03:36:11.072Z,96.05
2023-03-16T03:37:11.077Z,96.27
2023-03-16T03:38:11.079Z,96.30
2023-03-16T03:39:11.080Z,96.28
2023-03-16T03:40:15.081Z,96.36
2023-03-16T03:41:12.087Z,96.39
2023-03-16T03:42:11.076Z,96.12
2023-03-16T03:43:11.079Z,96.12
2023-03-16T03:44:11.094Z,96.07
2023-03-16T03:45:11.077Z,95.89
2023-03-16T03:46:11.188Z,96.12
2023-03-16T03:47:11.180Z,96.01
2023-03-16T03:48:11.079Z,95.99
2023-03-16T03:49:11.079Z,96.15
2023-03-16T03:50:11.098Z,96.11
2023-03-16T03:51:11.077Z,96.05
2023-03-16T03:52:11.080Z,95.88
2023-03-16T03:53:11.092Z,95.86
2023-03-16T03:54:11.079Z,95.82
2023-03-16T03:55:11.074Z,95.98
2023-03-16T03:56:11.095Z,96.02
2023-03-16T03:57:11.086Z,96.08
2023-03-16T03:58:11.080Z,95.97
2023-03-16T03:59:11.087Z,95.84
2023-03-16T04:00:13.073Z,95.74
2023-03-16T04:01:11.064Z,95.55
2023-03-16T04:02:11.208Z,95.66
2023-03-16T04:03:11.196Z,95.61
2023-03-16T04:04:11.062Z,95.53
2023-03-16T04:05:11.072Z,95.42
2023-03-16T04:06:11.059Z,95.18
2023-03-16T04:07:11.061Z,95.21
2023-03-16T04:08:11.063Z,95.29
2023-03-16T04:09:11.061Z,95.29
2023-03-16T04:10:11.062Z,95.37
2023-03-16T04:11:11.058Z,95.18
2023-03-16T04:12:11.061Z,95.12
2023-03-16T04:13:11.062Z,95.12
2023-03-16T04:14:11.060Z,95.12
2023-03-16T04:15:11.063Z,95.25
2023-03-16T04:16:11.190Z,95.17
2023-03-16T04:17:11.061Z,95.12
2023-03-16T04:18:11.063Z,95.16
2023-03-16T04:19:11.059Z,95.23
2023-03-16T04:20:15.058Z,95.27
2023-03-16T04:21:16.060Z,95.17
2023-03-16T04:22:11.075Z,95.28
2023-03-16T04:23:11.063Z,95.18
2023-03-16T04:24:11.073Z,95.38
2023-03-16T04:25:11.531Z,95.20
2023-03-16T04:26:11.059Z,95.33
2023-03-16T04:27:11.062Z,95.44
2023-03-16T04:28:11.067Z,95.13
2023-03-16T04:29:11.059Z,95.14
2023-03-16T04:30:12.074Z,95.10
2023-03-16T04:31:11.162Z,95.09
2023-03-16T04:32:11.063Z,95.23
2023-03-16T04:33:11.062Z,95.18
2023-03-16T04:34:11.066Z,95.08
2023-03-16T04:35:11.059Z,94.94
2023-03-16T04:36:11.109Z,95.08
2023-03-16T04:37:11.064Z,95.05
2023-03-16T04:38:11.062Z,94.99
2023-03-16T04:39:11.070Z,94.79
2023-03-16T04:40:18.063Z,94.79
2023-03-16T04:41:11.064Z,94.95
2023-03-16T04:42:11.066Z,94.79
2023-03-16T04:43:11.074Z,94.65
2023-03-16T04:44:11.064Z,94.55
2023-03-16T04:45:11.068Z,94.62
2023-03-16T04:46:11.138Z,94.67
2023-03-16T04:47:13.066Z,94.67
2023-03-16T04:48:11.068Z,94.54
2023-03-16T04:49:13.073Z,94.35
2023-03-16T04:50:11.067Z,94.34
2023-03-16T04:51:11.074Z,94.34
2023-03-16T04:52:11.076Z,94.35
2023-03-16T04:53:11.068Z,94.34
2023-03-16T04:54:11.065Z,94.37
2023-03-16T04:55:11.069Z,94.18
2023-03-16T04:56:11.068Z,94.29
2023-03-16T04:57:11.062Z,94.26
2023-03-16T04:58:11.065Z,94.23
2023-03-16T04:59:11.070Z,94.51
2023-03-16T05:00:15.087Z,94.62
2023-03-16T05:01:11.108Z,94.65
2023-03-16T05:02:11.076Z,94.45
2023-03-16T05:03:11.067Z,94.41
2023-03-16T05:04:15.024Z,94.35
2023-03-16T05:05:13.122Z,94.46
2023-03-16T05:06:11.066Z,94.67
2023-03-16T05:07:11.065Z,94.73
2023-03-16T05:08:11.072Z,94.77
2023-03-16T05:09:12.074Z,94.75
2023-03-16T05:10:12.063Z,94.56
2023-03-16T05:11:11.072Z,94.64
2023-03-16T05:12:11.069Z,94.69
2023-03-16T05:13:11.064Z,94.68
2023-03-16T05:14:11.077Z,94.61
2023-03-16T05:15:11.096Z,94.65
2023-03-16T05:16:11.119Z,94.73
2023-03-16T05:17:11.077Z,94.71
2023-03-16T05:18:11.090Z,94.60
2023-03-16T05:19:11.083Z,94.51
2023-03-16T05:20:16.366Z,94.62
2023-03-16T05:21:11.069Z,94.75
2023-03-16T05:22:11.074Z,95.07
2023-03-16T05:23:12.069Z,95.09
2023-03-16T05:24:11.069Z,94.95
2023-03-16T05:25:11.084Z,95.04
2023-03-16T05:26:11.070Z,95.25
2023-03-16T05:27:11.070Z,95.25
2023-03-16T05:28:11.077Z,95.06
2023-03-16T05:29:11.066Z,94.80
2023-03-16T05:30:11.076Z,94.72
2023-03-16T05:31:11.115Z,94.72
2023-03-16T05:32:11.069Z,94.87
2023-03-16T05:33:11.109Z,94.79
2023-03-16T05:34:11.072Z,94.57
2023-03-16T05:35:11.069Z,94.44
2023-03-16T05:36:11.123Z,94.28
2023-03-16T05:37:11.115Z,94.15
2023-03-16T05:38:11.075Z,94.08
2023-03-16T05:39:12.087Z,94.03
2023-03-16T05:40:15.074Z,94.12
2023-03-16T05:41:11.079Z,94.14
2023-03-16T05:42:11.069Z,94.28
2023-03-16T05:43:11.073Z,94.38
2023-03-16T05:44:11.082Z,94.51
2023-03-16T05:45:11.095Z,94.59
2023-03-16T05:46:11.164Z,94.78
2023-03-16T05:47:11.083Z,95.15
2023-03-16T05:48:11.076Z,95.11
2023-03-16T05:49:11.078Z,94.86
2023-03-16T05:50:11.085Z,95.19
2023-03-16T05:51:11.077Z,95.46
2023-03-16T05:52:11.070Z,95.55
2023-03-16T05:53:11.084Z,95.56
2023-03-16T05:54:11.079Z,95.54
2023-03-16T05:55:11.072Z,95.87
2023-03-16T05:56:11.077Z,96.09
2023-03-16T05:57:11.080Z,96.11
2023-03-16T05:58:11.072Z,96.24
2023-03-16T05:59:11.076Z,96.39
2023-03-16T06:00:15.074Z,96.30
2023-03-16T06:01:11.111Z,96.61
2023-03-16T06:02:11.080Z,96.77
2023-03-16T06:03:11.143Z,96.84
2023-03-16T06:04:11.182Z,96.80
2023-03-16T06:05:11.143Z,97.04
2023-03-16T06:06:11.108Z,97.06
2023-03-16T06:07:11.078Z,97.26
2023-03-16T06:08:11.077Z,97.07
2023-03-16T06:09:11.081Z,97.12
2023-03-16T06:10:11.071Z,97.22
2023-03-16T06:11:11.080Z,97.22
2023-03-16T06:12:11.082Z,97.15
2023-03-16T06:13:11.081Z,97.05
2023-03-16T06:14:11.084Z,96.86
2023-03-16T06:15:11.077Z,96.86
2023-03-16T06:16:11.107Z,96.99
2023-03-16T06:17:11.076Z,97.40
2023-03-16T06:18:11.087Z,97.62
2023-03-16T06:19:11.084Z,97.66
2023-03-16T06:20:14.078Z,97.50
2023-03-16T06:21:11.082Z,97.37
2023-03-16T06:22:11.164Z,97.32
2023-03-16T06:23:11.080Z,97.34
2023-03-16T06:24:11.108Z,97.23
2023-03-16T06:25:11.087Z,97.18
2023-03-16T06:26:11.082Z,97.28
2023-03-16T06:27:11.087Z,96.97
2023-03-16T06:28:11.092Z,97.07
2023-03-16T06:29:11.084Z,97.06
2023-03-16T06:30:11.126Z,96.83
2023-03-16T06:31:11.175Z,96.73
2023-03-16T06:32:11.075Z,96.56
2023-03-16T06:33:11.156Z,96.33
2023-03-16T06:34:11.080Z,96.24
2023-03-16T06:35:11.079Z,96.00
2023-03-16T06:36:11.141Z,96.12
2023-03-16T06:37:11.092Z,95.91
2023-03-16T06:38:11.082Z,95.72
2023-03-16T06:39:11.079Z,95.88
2023-03-16T06:40:11.116Z,95.95
2023-03-16T06:41:11.082Z,95.71
2023-03-16T06:42:11.082Z,95.39
2023-03-16T06:43:11.086Z,95.39
2023-03-16T06:44:11.081Z,95.23
2023-03-16T06:45:11.082Z,95.25
2023-03-16T06:46:11.178Z,95.40
2023-03-16T06:47:11.080Z,95.33
2023-03-16T06:48:11.083Z,95.34
2023-03-16T06:49:11.102Z,95.42
2023-03-16T06:50:11.085Z,95.37
2023-03-16T06:51:11.094Z,95.32
2023-03-16T06:52:11.093Z,95.15
2023-03-16T06:53:11.082Z,95.04
2023-03-16T06:54:11.096Z,95.05
2023-03-16T06:55:11.101Z,94.99
2023-03-16T06:56:11.085Z,94.92
2023-03-16T06:57:11.099Z,94.78
2023-03-16T06:58:11.092Z,94.73
2023-03-16T06:59:11.086Z,94.65
2023-03-16T07:00:14.097Z,94.79
2023-03-16T07:01:11.113Z,94.80
2023-03-16T07:02:12.066Z,94.85
2023-03-16T07:03:11.075Z,94.99
2023-03-16T07:04:11.152Z,95.03
2023-03-16T07:05:11.067Z,94.79
2023-03-16T07:06:11.059Z,94.77
2023-03-16T07:07:11.066Z,94.75
2023-03-16T07:08:11.068Z,94.51
2023-03-16T07:09:11.056Z,94.39
2023-03-16T07:10:14.070Z,94.24
2023-03-16T07:11:11.064Z,94.30
2023-03-16T07:12:11.054Z,94.23
2023-03-16T07:13:11.062Z,94.31
2023-03-16T07:14:11.065Z,94.43
2023-03-16T07:15:11.059Z,94.44
2023-03-16T07:16:11.101Z,94.20
2023-03-16T07:17:11.060Z,94.27
2023-03-16T07:18:11.057Z,94.37
2023-03-16T07:19:11.062Z,94.42
2023-03-16T07:20:15.060Z,94.70
2023-03-16T07:21:11.063Z,94.64
2023-03-16T07:22:11.061Z,94.58
2023-03-16T07:23:11.065Z,94.60
2023-03-16T07:24:11.062Z,94.53
2023-03-16T07:25:11.062Z,94.50
2023-03-16T07:26:12.116Z,94.46
2023-03-16T07:27:12.484Z,94.41
2023-03-16T07:28:11.059Z,94.25
2023-03-16T07:29:11.063Z,94.30
2023-03-16T07:30:11.062Z,94.17
2023-03-16T07:31:11.056Z,94.23
2023-03-16T07:32:11.116Z,94.21
2023-03-16T07:33:11.188Z,94.27
2023-03-16T07:34:11.060Z,94.19
2023-03-16T07:35:11.059Z,94.06
2023-03-16T07:36:11.163Z,93.91
2023-03-16T07:37:12.062Z,93.88
2023-03-16T07:38:11.058Z,93.76
2023-03-16T07:39:11.064Z,93.68
2023-03-16T07:40:12.058Z,93.74
2023-03-16T07:41:11.063Z,93.92
2023-03-16T07:42:11.061Z,93.97
2023-03-16T07:43:11.063Z,93.88
2023-03-16T07:44:11.059Z,93.77
2023-03-16T07:45:11.069Z,93.70
2023-03-16T07:46:11.099Z,93.58
2023-03-16T07:47:13.066Z,93.40
2023-03-16T07:48:11.068Z,93.25
2023-03-16T07:49:11.065Z,93.09
2023-03-16T07:50:11.057Z,93.01
2023-03-16T07:51:11.064Z,93.01
2023-03-16T07:52:11.065Z,92.92
2023-03-16T07:53:11.058Z,92.94
2023-03-16T07:54:11.064Z,92.84
2023-03-16T07:55:11.062Z,92.84
2023-03-16T07:56:11.066Z,92.69
2023-03-16T07:57:11.060Z,92.68
2023-03-16T07:58:11.073Z,92.63
2023-03-16T07:59:11.061Z,92.61
2023-03-16T08:00:11.070Z,92.40
2023-03-16T08:01:11.072Z,92.45
2023-03-16T08:02:15.092Z,92.53
2023-03-16T08:03:11.121Z,92.42
2023-03-16T08:04:11.069Z,92.31
2023-03-16T08:05:11.124Z,92.22
2023-03-16T08:06:11.070Z,92.15
2023-03-16T08:07:13.069Z,92.06
2023-03-16T08:08:13.064Z,91.85
2023-03-16T08:09:11.061Z,92.05
2023-03-16T08:10:11.061Z,92.04
2023-03-16T08:11:11.066Z,91.79
2023-03-16T08:12:11.071Z,91.71
2023-03-16T08:13:11.103Z,91.62
2023-03-16T08:14:11.096Z,91.76
2023-03-16T08:15:11.064Z,91.61
2023-03-16T08:16:14.109Z,91.36
2023-03-16T08:17:11.074Z,91.43
2023-03-16T08:18:11.068Z,91.44
2023-03-16T08:19:11.062Z,91.27
2023-03-16T08:20:14.069Z,91.11
2023-03-16T08:21:11.071Z,91.05
2023-03-16T08:22:11.077Z,91.08
2023-03-16T08:23:11.069Z,90.90
2023-03-16T08:24:11.098Z,90.86
2023-03-16T08:25:11.109Z,90.62
2023-03-16T08:26:12.069Z,90.69
2023-03-16T08:27:11.113Z,90.84
2023-03-16T08:28:11.069Z,90.92
2023-03-16T08:29:11.120Z,91.00
2023-03-16T08:30:11.071Z,90.77
2023-03-16T08:31:11.089Z,90.61
2023-03-16T08:32:11.072Z,90.61
2023-03-16T08:33:11.111Z,90.41
2023-03-16T08:34:11.070Z,90.27
2023-03-16T08:35:11.070Z,90.38
2023-03-16T08:36:11.112Z,90.23
2023-03-16T08:37:11.078Z,90.16
2023-03-16T08:38:11.080Z,89.93
2023-03-16T08:39:12.144Z,90.06
2023-03-16T08:40:15.078Z,90.12
2023-03-16T08:41:11.079Z,89.96
2023-03-16T08:42:11.082Z,89.86
2023-03-16T08:43:11.074Z,89.80
2023-03-16T08:44:11.070Z,89.74
2023-03-16T08:45:14.302Z,89.79
2023-03-16T08:46:11.114Z,89.72
2023-03-16T08:47:11.081Z,89.53
2023-03-16T08:48:11.069Z,89.59
2023-03-16T08:49:11.079Z,89.44
2023-03-16T08:50:11.074Z,89.39
2023-03-16T08:51:11.071Z,89.38
2023-03-16T08:52:11.088Z,89.09
2023-03-16T08:53:11.085Z,88.84
2023-03-16T08:54:11.073Z,88.61
2023-03-16T08:55:11.071Z,88.43
2023-03-16T08:56:11.079Z,88.29
2023-03-16T08:57:11.094Z,88.19
2023-03-16T08:58:11.072Z,87.98
2023-03-16T08:59:27.092Z,87.66
2023-03-16T09:00:17.458Z,87.61
2023-03-16T09:01:11.071Z,87.42
2023-03-16T09:02:13.146Z,87.30
2023-03-16T09:03:11.069Z,87.22
2023-03-16T09:04:11.155Z,87.41
2023-03-16T09:05:11.085Z,87.41
2023-03-16T09:06:11.074Z,87.29
2023-03-16T09:07:11.067Z,87.29
2023-03-16T09:08:11.083Z,87.51
2023-03-16T09:09:11.071Z,87.57
2023-03-16T09:10:11.077Z,87.48
2023-03-16T09:11:15.076Z,87.48
2023-03-16T09:12:11.070Z,87.29
2023-03-16T09:13:11.070Z,87.66
2023-03-16T09:14:11.095Z,87.48
2023-03-16T09:15:11.071Z,87.37
2023-03-16T09:16:11.148Z,87.29
2023-03-16T09:17:11.076Z,87.02
2023-03-16T09:18:11.073Z,87.00
2023-03-16T09:19:11.073Z,87.08
2023-03-16T09:20:22.452Z,87.17
2023-03-16T09:21:14.094Z,87.17
2023-03-16T09:22:11.070Z,86.95
2023-03-16T09:23:11.067Z,87.01
2023-03-16T09:24:12.073Z,86.82
2023-03-16T09:25:11.071Z,86.80
2023-03-16T09:26:11.072Z,86.88
2023-03-16T09:27:11.148Z,87.05
2023-03-16T09:28:11.071Z,86.98
2023-03-16T09:29:11.072Z,86.93
2023-03-16T09:30:11.073Z,86.87
2023-03-16T09:31:15.087Z,86.86
2023-03-16T09:32:11.079Z,86.75
2023-03-16T09:33:11.163Z,87.01
2023-03-16T09:34:11.088Z,87.02
2023-03-16T09:35:11.072Z,87.02
2023-03-16T09:36:11.126Z,86.67
2023-03-16T09:37:11.082Z,86.97
2023-03-16T09:38:11.084Z,86.95
2023-03-16T09:39:11.069Z,87.06
2023-03-16T09:40:19.086Z,86.70
2023-03-16T09:41:15.075Z,86.98
2023-03-16T09:42:18.081Z,86.88
2023-03-16T09:43:19.074Z,86.85
2023-03-16T09:44:19.077Z,86.45
2023-03-16T09:45:18.075Z,86.39
2023-03-16T09:46:19.167Z,86.35
2023-03-16T09:47:12.080Z,86.13
2023-03-16T09:48:11.074Z,86.02
2023-03-16T09:49:12.079Z,85.88
2023-03-16T09:50:20.118Z,85.71
2023-03-16T09:51:22.080Z,85.58
2023-03-16T09:52:22.078Z,85.85
2023-03-16T09:53:19.102Z,85.77
2023-03-16T09:54:19.085Z,85.62
2023-03-16T09:55:19.073Z,85.63
2023-03-16T09:56:22.080Z,85.62
2023-03-16T09:57:22.073Z,85.65
2023-03-16T09:58:17.086Z,85.78
2023-03-16T09:59:15.081Z,85.60
2023-03-16T10:00:22.058Z,85.42
2023-03-16T10:01:24.098Z,85.25
2023-03-16T10:02:19.062Z,85.30
2023-03-16T10:03:22.068Z,85.06
2023-03-16T10:04:19.091Z,84.71
2023-03-16T10:05:12.064Z,84.75
2023-03-16T10:06:13.062Z,84.54
2023-03-16T10:07:22.089Z,84.44
2023-03-16T10:08:19.069Z,84.46
2023-03-16T10:09:22.065Z,84.43
2023-03-16T10:10:21.074Z,84.18
2023-03-16T10:11:19.090Z,84.02
2023-03-16T10:12:13.065Z,83.79
2023-03-16T10:13:19.070Z,83.47
2023-03-16T10:14:22.065Z,83.37
2023-03-16T10:15:13.166Z,83.13
2023-03-16T10:16:18.081Z,83.08
2023-03-16T10:17:18.063Z,82.73
2023-03-16T10:18:17.065Z,82.82
2023-03-16T10:19:17.060Z,82.58
2023-03-16T10:20:17.055Z,82.83
2023-03-16T10:21:13.067Z,82.87
2023-03-16T10:22:19.062Z,82.65
2023-03-16T10:23:19.154Z,83.04
2023-03-16T10:24:19.133Z,82.61
2023-03-16T10:25:22.072Z,82.76
2023-03-16T10:26:17.069Z,82.71
2023-03-16T10:27:19.063Z,82.54
2023-03-16T10:28:16.065Z,82.33
2023-03-16T10:29:13.074Z,82.28
2023-03-16T10:30:19.073Z,82.03
2023-03-16T10:31:11.065Z,82.10
2023-03-16T10:32:14.069Z,82.07
2023-03-16T10:33:19.101Z,81.81
2023-03-16T10:34:11.069Z,82.03
2023-03-16T10:35:19.061Z,82.15
2023-03-16T10:36:18.081Z,81.92
2023-03-16T10:37:14.061Z,81.94
2023-03-16T10:38:15.061Z,82.08
2023-03-16T10:39:12.072Z,82.12
2023-03-16T10:40:12.075Z,82.10
2023-03-16T10:41:19.129Z,81.90
2023-03-16T10:42:16.062Z,82.05
2023-03-16T10:43:15.088Z,81.80
2023-03-16T10:44:21.073Z,81.72
2023-03-16T10:45:19.064Z,81.61
2023-03-16T10:46:13.067Z,81.76
2023-03-16T10:47:19.162Z,81.94
2023-03-16T10:48:16.091Z,82.25
2023-03-16T10:49:19.071Z,82.09
2023-03-16T10:50:15.109Z,82.18
2023-03-16T10:51:12.117Z,82.06
2023-03-16T10:52:19.158Z,82.20
2023-03-16T10:53:19.071Z,82.08
2023-03-16T10:54:22.069Z,82.22
2023-03-16T10:55:20.066Z,81.98
2023-03-16T10:56:18.070Z,82.01
2023-03-16T10:57:19.079Z,82.08
2023-03-16T10:58:11.078Z,82.23
2023-03-16T10:59:15.069Z,82.00
2023-03-16T11:00:20.093Z,82.00
2023-03-16T11:01:18.153Z,82.01
2023-03-16T11:02:16.075Z,82.00
2023-03-16T11:03:21.071Z,81.70
2023-03-16T11:04:15.107Z,81.77
2023-03-16T11:05:22.077Z,81.78
2023-03-16T11:06:19.082Z,81.61
2023-03-16T11:07:20.074Z,81.72
2023-03-16T11:08:20.077Z,81.66
2023-03-16T11:09:19.077Z,81.51
2023-03-16T11:10:22.082Z,81.78
2023-03-16T11:11:13.092Z,81.68
2023-03-16T11:12:22.075Z,81.94
2023-03-16T11:13:16.074Z,81.79
2023-03-16T11:14:13.075Z,81.87
2023-03-16T11:15:25.210Z,81.77
2023-03-16T11:16:21.126Z,81.66
2023-03-16T11:17:20.087Z,81.49
2023-03-16T11:18:21.079Z,81.33
2023-03-16T11:19:19.078Z,81.37
2023-03-16T11:20:17.100Z,81.25
2023-03-16T11:21:18.085Z,80.59
2023-03-16T11:22:16.080Z,80.58
2023-03-16T11:23:15.077Z,80.31
2023-03-16T11:24:22.092Z,80.13
2023-03-16T11:25:17.087Z,79.89
2023-03-16T11:26:18.076Z,79.75
2023-03-16T11:27:23.078Z,79.63
2023-03-16T11:28:20.084Z,79.84
2023-03-16T11:29:23.086Z,79.81
2023-03-16T11:30:22.079Z,79.94
2023-03-16T11:31:19.145Z,79.30
2023-03-16T11:32:15.355Z,79.29
2023-03-16T11:33:12.179Z,79.15
2023-03-16T11:34:16.107Z,78.74
2023-03-16T11:35:17.085Z,78.35
2023-03-16T11:36:21.122Z,78.44
2023-03-16T11:37:21.081Z,78.33
2023-03-16T11:38:18.092Z,78.18
2023-03-16T11:39:22.080Z,77.77
2023-03-16T11:40:23.087Z,77.79
2023-03-16T11:41:18.115Z,77.94
2023-03-16T11:42:23.089Z,77.58
2023-03-16T11:43:19.116Z,77.24
2023-03-16T11:44:21.088Z,77.16
2023-03-16T11:45:19.087Z,77.34
2023-03-16T11:46:17.097Z,77.47
2023-03-16T11:47:19.090Z,77.13
2023-03-16T11:48:22.113Z,76.89
2023-03-16T11:49:22.099Z,76.58
2023-03-16T11:50:19.086Z,76.77
2023-03-16T11:51:19.080Z,76.90
2023-03-16T11:52:19.084Z,76.93
2023-03-16T11:53:19.083Z,76.82
2023-03-16T11:54:19.081Z,76.96
2023-03-16T11:55:19.078Z,76.69
2023-03-16T11:56:19.079Z,76.82
2023-03-16T11:57:19.076Z,76.77
2023-03-16T11:58:19.094Z,76.51
2023-03-16T11:59:21.078Z,76.64
2023-03-16T12:00:19.090Z,76.66
2023-03-16T12:01:19.078Z,76.71
2023-03-16T12:02:19.213Z,76.71
2023-03-16T12:03:21.154Z,76.72
2023-03-16T12:04:19.118Z,76.92
2023-03-16T12:05:19.074Z,76.88
2023-03-16T12:06:23.090Z,76.95
2023-03-16T12:07:21.076Z,76.90
2023-03-16T12:08:19.088Z,76.71
2023-03-16T12:09:19.078Z,76.43
2023-03-16T12:10:19.076Z,76.61
2023-03-16T12:11:14.075Z,76.66
2023-03-16T12:12:19.076Z,76.34
2023-03-16T12:13:19.074Z,76.55
2023-03-16T12:14:21.070Z,76.56
2023-03-16T12:15:19.073Z,76.50
2023-03-16T12:16:18.144Z,76.53
2023-03-16T12:17:17.074Z,76.66
2023-03-16T12:18:21.073Z,76.74
2023-03-16T12:19:19.070Z,76.77
2023-03-16T12:20:19.075Z,76.70
2023-03-16T12:21:17.080Z,76.76
2023-03-16T12:22:21.076Z,76.58
2023-03-16T12:23:16.091Z,76.88
2023-03-16T12:24:21.074Z,76.79
2023-03-16T12:25:19.088Z,76.71
2023-03-16T12:26:11.084Z,76.67
2023-03-16T12:27:17.086Z,76.81
2023-03-16T12:28:20.074Z,76.75
2023-03-16T12:29:19.095Z,76.46
2023-03-16T12:30:19.077Z,76.11
2023-03-16T12:31:20.131Z,76.24
2023-03-16T12:32:19.071Z,76.11
2023-03-16T12:33:18.073Z,76.12
2023-03-16T12:34:19.084Z,75.87
2023-03-16T12:35:19.080Z,76.17
2023-03-16T12:36:21.089Z,76.17
2023-03-16T12:37:19.074Z,76.39
2023-03-16T12:38:21.075Z,76.36
2023-03-16T12:39:19.092Z,76.59
2023-03-16T12:40:19.082Z,76.57
2023-03-16T12:41:19.077Z,76.53
2023-03-16T12:42:21.077Z,76.57
2023-03-16T12:43:19.077Z,76.68
2023-03-16T12:44:17.086Z,77.03
2023-03-16T12:45:21.101Z,76.71
2023-03-16T12:46:13.157Z,76.93
2023-03-16T12:47:23.082Z,76.93
2023-03-16T12:48:21.084Z,76.79
2023-03-16T12:49:11.087Z,76.89
2023-03-16T12:50:15.081Z,76.92
2023-03-16T12:51:11.079Z,76.87
2023-03-16T12:52:11.515Z,76.97